createdAt,value
2024-01-11T00:02:39.755Z,131
2024-01-11T00:05:39.751Z,145
2024-01-11T00:07:39.745Z,145
2024-01-11T00:10:39.700Z,152
2024-01-11T00:12:39.711Z,139
2024-01-11T00:15:39.785Z,138
2024-01-11T00:17:39.844Z,135
2024-01-11T00:20:39.825Z,137
2024-01-11T00:23:39.715Z,140
2024-01-11T00:26:39.741Z,132
2024-01-11T00:28:39.726Z,140
2024-01-11T00:31:39.729Z,129
2024-01-11T00:33:39.784Z,131
2024-01-11T00:35:39.763Z,142
2024-01-11T00:38:39.757Z,136
2024-01-11T00:41:39.725Z,138
2024-01-11T00:44:39.779Z,139
2024-01-11T00:46:39.747Z,135
2024-01-11T00:49:39.717Z,147
2024-01-11T00:52:39.718Z,143
2024-01-11T00:55:39.693Z,141
2024-01-11T00:57:39.715Z,138
2024-01-11T01:00:39.762Z,132
2024-01-11T01:02:39.816Z,135
2024-01-11T01:05:44.772Z,147
2024-01-11T01:08:39.756Z,135
2024-01-11T01:10:39.710Z,136
2024-01-11T01:13:39.692Z,135
2024-01-11T01:15:39.734Z,138
2024-01-11T01:18:39.776Z,138
2024-01-11T01:21:39.710Z,134
2024-01-11T01:24:39.755Z,137
2024-01-11T01:26:39.793Z,138
2024-01-11T01:28:39.727Z,141
2024-01-11T01:31:39.728Z,136
2024-01-11T01:34:39.771Z,132
2024-01-11T01:36:39.677Z,134
2024-01-11T01:38:39.832Z,139
2024-01-11T01:41:39.759Z,137
2024-01-11T01:44:39.765Z,131
2024-01-11T01:46:39.731Z,135
2024-01-11T01:49:39.871Z,134
2024-01-11T01:52:39.675Z,126
2024-01-11T01:54:39.701Z,146
2024-01-11T01:57:39.730Z,128
2024-01-11T02:00:39.760Z,126
2024-01-11T02:03:39.815Z,132
2024-01-11T02:05:39.793Z,131
2024-01-11T02:08:39.747Z,130
2024-01-11T02:11:39.768Z,125
2024-01-11T02:14:39.754Z,133
2024-01-11T02:16:39.711Z,130
2024-01-11T02:19:39.746Z,125
2024-01-11T02:21:39.729Z,129
2024-01-11T02:23:40.545Z,124
2024-01-11T02:26:39.738Z,132
2024-01-11T02:28:39.721Z,132
2024-01-11T02:31:39.719Z,135
2024-01-11T02:34:39.729Z,127
2024-01-11T02:36:39.724Z,125
2024-01-11T02:39:39.702Z,129
2024-01-11T02:42:39.683Z,131
2024-01-11T02:44:39.754Z,126
2024-01-11T02:47:39.870Z,126
2024-01-11T02:50:39.887Z,134
2024-01-11T02:53:39.711Z,134
2024-01-11T02:55:39.751Z,129
2024-01-11T02:58:39.767Z,131
2024-01-11T03:01:39.724Z,132
2024-01-11T03:03:39.730Z,133
2024-01-11T03:06:39.775Z,128
2024-01-11T03:09:39.759Z,129
2024-01-11T03:12:44.678Z,122
2024-01-11T03:14:39.706Z,122
2024-01-11T03:17:39.740Z,125
2024-01-11T03:19:40.144Z,131
2024-01-11T03:22:39.710Z,132
2024-01-11T03:25:39.742Z,123
2024-01-11T03:28:39.676Z,127
2024-01-11T03:30:39.722Z,128
2024-01-11T03:33:39.804Z,132
2024-01-11T03:35:39.739Z,122
2024-01-11T03:37:39.716Z,131
2024-01-11T03:40:39.697Z,133
2024-01-11T03:42:39.716Z,129
2024-01-11T03:45:39.999Z,130
2024-01-11T03:48:39.806Z,125
2024-01-11T03:51:39.763Z,126
2024-01-11T03:53:39.764Z,128
2024-01-11T03:55:39.683Z,128
2024-01-11T03:57:39.711Z,123
2024-01-11T04:00:39.696Z,130
2024-01-11T04:02:39.833Z,122
2024-01-11T04:05:39.773Z,123
2024-01-11T04:07:39.702Z,127
2024-01-11T04:09:39.724Z,133
2024-01-11T04:12:39.709Z,126
2024-01-11T04:14:39.753Z,128
2024-01-11T04:17:39.793Z,127
2024-01-11T04:19:39.695Z,142
2024-01-11T04:22:39.710Z,128
2024-01-11T04:25:39.682Z,133
2024-01-11T04:27:39.706Z,128
2024-01-11T04:29:39.719Z,129
2024-01-11T04:32:39.758Z,131
2024-01-11T04:34:39.720Z,131
2024-01-11T04:37:39.670Z,125
2024-01-11T04:40:39.673Z,120
2024-01-11T04:42:39.717Z,129
2024-01-11T04:45:39.693Z,129
2024-01-11T04:47:39.866Z,128
2024-01-11T04:50:39.884Z,123
2024-01-11T04:53:39.754Z,136
2024-01-11T04:56:39.764Z,127
2024-01-11T04:59:39.716Z,127
2024-01-11T05:02:39.804Z,122
2024-01-11T05:04:39.728Z,134
2024-01-11T05:07:39.712Z,124
2024-01-11T05:10:39.690Z,129
2024-01-11T05:12:39.685Z,130
2024-01-11T05:14:39.717Z,134
2024-01-11T05:17:39.795Z,128
2024-01-11T05:20:39.706Z,130
2024-01-11T05:23:39.743Z,129
2024-01-11T05:25:39.724Z,128
2024-01-11T05:28:39.710Z,139
2024-01-11T05:31:39.836Z,122
2024-01-11T05:33:40.068Z,138
2024-01-11T05:36:39.700Z,130
2024-01-11T05:38:39.753Z,129
2024-01-11T05:41:39.765Z,141
2024-01-11T05:43:39.698Z,136
2024-01-11T05:46:39.674Z,129
2024-01-11T05:48:39.906Z,131
2024-01-11T05:50:39.740Z,132
2024-01-11T05:53:39.861Z,138
2024-01-11T05:56:39.760Z,125
2024-01-11T05:59:39.703Z,138
2024-01-11T06:01:39.780Z,134
2024-01-11T06:04:39.674Z,140
2024-01-11T06:06:39.952Z,136
2024-01-11T06:08:39.930Z,134
2024-01-11T06:11:39.789Z,134
2024-01-11T06:14:39.949Z,139
2024-01-11T06:17:40.233Z,139
2024-01-11T06:19:39.783Z,134
2024-01-11T06:22:40.689Z,132
2024-01-11T06:25:39.765Z,143
2024-01-11T06:27:39.792Z,137
2024-01-11T06:29:39.799Z,133
2024-01-11T06:31:39.824Z,141
2024-01-11T06:34:40.842Z,137
2024-01-11T06:36:39.684Z,142
2024-01-11T06:38:39.960Z,142
2024-01-11T06:41:39.804Z,136
2024-01-11T06:43:39.704Z,143
2024-01-11T06:46:39.684Z,140
2024-01-11T06:49:39.671Z,144
2024-01-11T06:51:39.729Z,143
2024-01-11T06:54:39.681Z,143
2024-01-11T06:57:39.731Z,141
2024-01-11T06:59:39.744Z,142
2024-01-11T07:02:40.080Z,145
2024-01-11T07:05:39.769Z,140
2024-01-11T07:08:39.701Z,138
2024-01-11T07:10:39.772Z,143
2024-01-11T07:13:39.667Z,136
2024-01-11T07:15:39.686Z,131
2024-01-11T07:18:39.715Z,144
2024-01-11T07:20:39.782Z,133
2024-01-11T07:22:41.278Z,137
2024-01-11T07:25:39.704Z,138
2024-01-11T07:28:39.674Z,136
2024-01-11T07:30:39.724Z,140
2024-01-11T07:33:39.727Z,140
2024-01-11T07:35:39.819Z,142
2024-01-11T07:37:39.694Z,142
2024-01-11T07:39:39.779Z,144
2024-01-11T07:42:39.682Z,145
2024-01-11T07:45:39.680Z,149
2024-01-11T07:48:39.791Z,142
2024-01-11T07:50:39.725Z,141
2024-01-11T07:53:39.693Z,149
2024-01-11T07:55:39.719Z,150
2024-01-11T07:57:39.688Z,150
2024-01-11T07:59:39.765Z,146
2024-01-11T08:02:39.751Z,148
2024-01-11T08:05:39.861Z,156
2024-01-11T08:08:39.782Z,150
2024-01-11T08:11:40.929Z,155
2024-01-11T08:13:39.715Z,149
2024-01-11T08:16:39.676Z,158
2024-01-11T08:18:39.664Z,156
2024-01-11T08:20:39.713Z,150
2024-01-11T08:23:39.681Z,154
2024-01-11T08:25:39.653Z,158
2024-01-11T08:28:40.706Z,157
2024-01-11T08:31:40.271Z,167
2024-01-11T08:33:39.828Z,163
2024-01-11T08:36:39.677Z,166
2024-01-11T08:38:39.739Z,155
2024-01-11T08:41:39.758Z,166
2024-01-11T08:44:39.733Z,170
2024-01-11T08:47:40.022Z,165
2024-01-11T08:50:39.713Z,175
2024-01-11T08:52:44.692Z,177
2024-01-11T08:55:41.037Z,161
2024-01-11T08:58:39.662Z,183
2024-01-11T09:00:39.672Z,173
2024-01-11T09:03:39.788Z,166
2024-01-11T09:06:39.698Z,165
2024-01-11T09:08:40.665Z,174
2024-01-11T09:10:39.705Z,168
2024-01-11T09:12:39.813Z,154
2024-01-11T09:15:39.672Z,171
2024-01-11T09:18:41.181Z,157
2024-01-11T09:20:39.695Z,164
2024-01-11T09:23:39.706Z,163
2024-01-11T09:26:39.723Z,159
2024-01-11T09:29:39.724Z,167
2024-01-11T09:32:39.886Z,169
2024-01-11T09:34:39.795Z,173
2024-01-11T09:37:39.651Z,167
2024-01-11T09:39:39.688Z,168
2024-01-11T09:42:39.680Z,163
2024-01-11T09:45:39.663Z,171
2024-01-11T09:48:39.751Z,176
2024-01-11T09:50:39.704Z,165
2024-01-11T09:53:39.795Z,162
2024-01-11T09:55:39.674Z,164
2024-01-11T09:58:39.668Z,172
2024-01-11T10:04:39.662Z,172
2024-01-11T10:06:39.858Z,179
2024-01-11T10:09:39.657Z,174
2024-01-11T10:11:39.800Z,185
2024-01-11T10:13:39.722Z,182
2024-01-11T10:16:39.660Z,176
2024-01-11T10:18:39.958Z,116
2024-01-11T10:21:39.666Z,169
2024-01-11T10:23:39.690Z,172
2024-01-11T10:26:39.663Z,179
2024-01-11T10:29:39.713Z,166
2024-01-11T10:32:39.735Z,196
2024-01-11T10:35:39.701Z,143
2024-01-11T10:37:39.723Z,167
2024-01-11T10:39:39.716Z,192
2024-01-11T10:42:39.683Z,192
2024-01-11T10:44:39.782Z,186
2024-01-11T10:47:39.748Z,168
2024-01-11T10:49:39.655Z,175
2024-01-11T10:51:39.664Z,181
2024-01-11T10:54:39.673Z,179
2024-01-11T10:56:39.697Z,186
2024-01-11T10:58:39.657Z,181
2024-01-11T11:00:39.729Z,133
2024-01-11T11:03:40.978Z,192
2024-01-11T11:05:39.781Z,161
2024-01-11T11:07:39.664Z,164
2024-01-11T11:10:39.686Z,163
2024-01-11T11:13:39.666Z,167
2024-01-11T11:16:39.659Z,178
2024-01-11T11:18:39.790Z,159
2024-01-11T11:20:39.746Z,169
2024-01-11T11:23:39.711Z,171
2024-01-11T11:25:39.714Z,180
2024-01-11T11:28:39.670Z,170
2024-01-11T11:31:39.692Z,162
2024-01-11T11:33:39.691Z,142
2024-01-11T11:36:39.685Z,173
2024-01-11T11:38:39.725Z,177
2024-01-11T11:40:39.685Z,177
2024-01-11T11:42:39.903Z,157
2024-01-11T11:45:39.690Z,180
2024-01-11T11:47:39.971Z,186
2024-01-11T11:50:39.739Z,176
2024-01-11T11:53:39.741Z,182
2024-01-11T11:56:39.741Z,172
2024-01-11T11:59:39.754Z,177
2024-01-11T12:02:39.719Z,167
2024-01-11T12:04:39.695Z,176
2024-01-11T12:07:39.670Z,186
2024-01-11T12:09:39.727Z,169
2024-01-11T12:12:39.717Z,178
2024-01-11T12:15:39.667Z,167
2024-01-11T12:17:39.837Z,176
2024-01-11T12:20:39.741Z,151
2024-01-11T12:23:39.789Z,163
2024-01-11T12:26:41.088Z,184
2024-01-11T12:29:43.851Z,173
2024-01-11T12:31:39.749Z,186
2024-01-11T12:33:40.146Z,178
2024-01-11T12:35:39.744Z,183
2024-01-11T12:38:39.739Z,169
2024-01-11T12:41:39.713Z,172
2024-01-11T12:44:40.050Z,177
2024-01-11T12:46:39.730Z,174
2024-01-11T12:49:39.737Z,170
2024-01-11T12:52:39.684Z,165
2024-01-11T12:54:39.713Z,177
2024-01-11T12:57:39.823Z,165
2024-01-11T13:00:39.734Z,164
2024-01-11T13:03:39.714Z,164
2024-01-11T13:05:39.722Z,172
2024-01-11T13:07:39.687Z,170
2024-01-11T13:10:39.690Z,167
2024-01-11T13:13:39.710Z,168
2024-01-11T13:15:39.711Z,162
2024-01-11T13:18:39.769Z,168
2024-01-11T13:21:39.636Z,156
2024-01-11T13:23:40.006Z,170
2024-01-11T13:26:40.097Z,121
2024-01-11T13:29:39.731Z,153
2024-01-11T13:32:39.824Z,149
2024-01-11T13:35:39.756Z,139
2024-01-11T13:37:39.676Z,135
2024-01-11T13:40:39.701Z,152
2024-01-11T13:43:39.654Z,158
2024-01-11T13:45:39.682Z,163
2024-01-11T13:47:39.746Z,161
2024-01-11T13:49:39.809Z,169
2024-01-11T13:52:39.671Z,151
2024-01-11T13:55:40.332Z,153
2024-01-11T13:58:39.703Z,142
2024-01-11T14:00:39.699Z,141
2024-01-11T14:03:39.686Z,157
2024-01-11T14:05:39.698Z,149
2024-01-11T14:08:39.706Z,154
2024-01-11T14:10:39.686Z,153
2024-01-11T14:13:39.669Z,150
2024-01-11T14:16:39.680Z,144
2024-01-11T14:19:39.764Z,148
2024-01-11T14:21:39.676Z,155
2024-01-11T14:24:39.706Z,165
2024-01-11T14:27:39.683Z,153
2024-01-11T14:29:39.775Z,162
2024-01-11T14:32:39.785Z,153
2024-01-11T14:34:39.817Z,165
2024-01-11T14:37:39.709Z,164
2024-01-11T14:39:39.702Z,150
2024-01-11T14:42:39.773Z,145
2024-01-11T14:45:39.677Z,149
2024-01-11T14:47:39.767Z,156
2024-01-11T14:50:39.796Z,166
2024-01-11T14:52:40.138Z,160
2024-01-11T14:55:39.702Z,164
2024-01-11T14:58:39.661Z,153
2024-01-11T15:01:39.685Z,152
2024-01-11T15:03:39.708Z,154
2024-01-11T15:06:39.712Z,143
2024-01-11T15:08:44.745Z,154
2024-01-11T15:11:40.798Z,154
2024-01-11T15:13:39.718Z,156
2024-01-11T15:16:39.713Z,153
2024-01-11T15:19:39.717Z,145
2024-01-11T15:22:39.652Z,151
2024-01-11T15:24:39.701Z,152
2024-01-11T15:27:39.672Z,161
2024-01-11T15:30:39.761Z,162
2024-01-11T15:32:39.788Z,154
2024-01-11T15:35:40.086Z,147
2024-01-11T15:38:39.728Z,140
2024-01-11T15:41:39.747Z,151
2024-01-11T15:44:39.767Z,145
2024-01-11T15:47:39.782Z,138
2024-01-11T15:49:39.775Z,142
2024-01-11T15:52:39.685Z,131
2024-01-11T15:54:39.732Z,131
2024-01-11T15:57:39.718Z,106
2024-01-11T16:00:39.764Z,84
2024-01-11T16:03:39.700Z,67
2024-01-11T16:05:40.830Z,67
2024-01-11T16:08:39.925Z,73
2024-01-11T16:11:39.753Z,94
2024-01-11T16:13:39.685Z,97
2024-01-11T16:15:39.699Z,103
2024-01-11T16:20:39.704Z,107
2024-01-11T16:23:39.705Z,102
2024-01-11T16:26:39.802Z,102
2024-01-11T16:29:40.029Z,102
2024-01-11T16:32:39.702Z,97
2024-01-11T16:34:39.694Z,110
2024-01-11T16:37:39.685Z,103
2024-01-11T16:39:39.727Z,93
2024-01-11T16:42:39.780Z,95
2024-01-11T16:45:39.655Z,87
2024-01-11T16:48:39.713Z,94
2024-01-11T16:50:39.717Z,91
2024-01-11T16:53:39.748Z,87
2024-01-11T16:55:39.684Z,89
2024-01-11T16:58:39.746Z,89
2024-01-11T17:01:39.715Z,97
2024-01-11T17:04:39.715Z,95
2024-01-11T17:07:39.663Z,97
2024-01-11T17:09:39.723Z,97
2024-01-11T17:11:39.827Z,101
2024-01-11T17:14:39.748Z,108
2024-01-11T17:16:39.688Z,106
2024-01-11T17:19:39.664Z,104
2024-01-11T17:21:39.715Z,104
2024-01-11T17:23:39.727Z,118
2024-01-11T17:26:39.760Z,102
2024-01-11T17:29:39.716Z,109
2024-01-11T17:31:39.733Z,108
2024-01-11T17:34:39.924Z,94
2024-01-11T17:36:39.683Z,103
2024-01-11T17:38:39.737Z,97
2024-01-11T17:40:39.725Z,109
2024-01-11T17:43:39.723Z,97
2024-01-11T17:45:39.723Z,98
2024-01-11T17:48:39.834Z,105
2024-01-11T17:51:39.661Z,100
2024-01-11T17:53:39.728Z,99
2024-01-11T17:56:39.694Z,91
2024-01-11T17:59:39.688Z,96
2024-01-11T18:01:39.697Z,102
2024-01-11T18:03:39.723Z,99
2024-01-11T18:06:39.844Z,106
2024-01-11T18:09:39.906Z,103
2024-01-11T18:11:39.772Z,100
2024-01-11T18:14:39.709Z,103
2024-01-11T18:16:39.712Z,102
2024-01-11T18:19:39.829Z,95
2024-01-11T18:21:39.673Z,101
2024-01-11T18:23:39.762Z,97
2024-01-11T18:25:39.685Z,97
2024-01-11T18:28:39.686Z,102
2024-01-11T18:31:40.051Z,107
2024-01-11T18:34:39.749Z,114
2024-01-11T18:37:39.708Z,113
2024-01-11T18:39:39.755Z,110
2024-01-11T18:42:39.707Z,117
2024-01-11T18:44:39.732Z,113
2024-01-11T18:47:39.781Z,114
2024-01-11T18:49:39.811Z,107
2024-01-11T18:52:39.751Z,114
2024-01-11T18:55:39.682Z,116
2024-01-11T18:58:39.679Z,120
2024-01-11T19:00:39.733Z,122
2024-01-11T19:02:39.786Z,124
2024-01-11T19:05:39.858Z,125
2024-01-11T19:07:39.688Z,122
2024-01-11T19:10:39.656Z,125
2024-01-11T19:12:39.694Z,110
2024-01-11T19:15:39.742Z,116
2024-01-11T19:18:39.876Z,124
2024-01-11T19:21:39.681Z,129
2024-01-11T19:23:40.456Z,130
2024-01-11T19:26:39.768Z,122
2024-01-11T19:29:39.730Z,115
2024-01-11T19:32:39.730Z,121
2024-01-11T19:34:39.754Z,123
2024-01-11T19:36:39.758Z,131
2024-01-11T19:39:39.725Z,119
2024-01-11T19:41:39.743Z,120
2024-01-11T19:44:39.750Z,127
2024-01-11T19:47:39.834Z,120
2024-01-11T19:50:39.701Z,121
2024-01-11T19:52:39.952Z,116
2024-01-11T19:54:39.720Z,115
2024-01-11T19:57:39.731Z,125
2024-01-11T19:59:39.810Z,109
2024-01-11T20:02:39.769Z,120
2024-01-11T20:05:39.742Z,117
2024-01-11T20:07:39.748Z,119
2024-01-11T20:10:39.689Z,117
2024-01-11T20:12:39.696Z,115
2024-01-11T20:14:39.773Z,123
2024-01-11T20:17:39.792Z,123
2024-01-11T20:19:39.760Z,116
2024-01-11T20:22:39.699Z,117
2024-01-11T20:25:39.727Z,124
2024-01-11T20:28:39.674Z,113
2024-01-11T20:30:39.739Z,117
2024-01-11T20:33:40.137Z,118
2024-01-11T20:35:39.751Z,117
2024-01-11T20:38:39.677Z,124
2024-01-11T20:40:39.685Z,111
2024-01-11T20:42:39.689Z,106
2024-01-11T20:45:39.717Z,102
2024-01-11T20:48:39.865Z,121
2024-01-11T20:50:39.727Z,114
2024-01-11T20:52:39.815Z,115
2024-01-11T20:55:39.722Z,112
2024-01-11T20:57:39.729Z,125
2024-01-11T20:59:39.733Z,124
2024-01-11T21:01:39.841Z,110
2024-01-11T21:03:39.851Z,120
2024-01-11T21:06:45.100Z,116
2024-01-11T21:08:39.732Z,114
2024-01-11T21:10:39.702Z,114
2024-01-11T21:13:39.769Z,127
2024-01-11T21:16:39.747Z,123
2024-01-11T21:19:40.950Z,117
2024-01-11T21:21:39.765Z,112
2024-01-11T21:24:39.742Z,122
2024-01-11T21:27:39.804Z,117
2024-01-11T21:30:44.793Z,120
2024-01-11T21:33:39.776Z,121
2024-01-11T21:36:39.680Z,125
2024-01-11T21:39:40.720Z,126
2024-01-11T21:41:39.801Z,130
2024-01-11T21:43:40.088Z,117
2024-01-11T21:46:39.697Z,121
2024-01-11T21:48:39.793Z,117
2024-01-11T21:51:39.711Z,117
2024-01-11T21:53:39.821Z,118
2024-01-11T21:56:39.763Z,121
2024-01-11T21:58:39.706Z,113
2024-01-11T22:01:39.681Z,123
2024-01-11T22:04:39.702Z,111
2024-01-11T22:07:39.754Z,105
2024-01-11T22:09:39.756Z,122
2024-01-11T22:12:39.739Z,119
2024-01-11T22:15:39.723Z,119
2024-01-11T22:18:39.842Z,120
2024-01-11T22:20:39.925Z,114
2024-01-11T22:23:39.719Z,117
2024-01-11T22:26:39.704Z,111
2024-01-11T22:28:39.695Z,111
2024-01-11T22:31:39.718Z,116
2024-01-11T22:33:39.860Z,109
2024-01-11T22:35:39.702Z,116
2024-01-11T22:37:39.773Z,114
2024-01-11T22:40:39.673Z,111
2024-01-11T22:43:39.750Z,112
2024-01-11T22:46:39.636Z,109
2024-01-11T22:48:39.726Z,114
2024-01-11T22:50:39.719Z,123
2024-01-11T22:52:39.694Z,118
2024-01-11T22:55:39.742Z,118
2024-01-11T22:58:39.696Z,111
2024-01-11T23:00:39.716Z,114
2024-01-11T23:03:39.676Z,125
2024-01-11T23:05:39.770Z,121
2024-01-11T23:08:39.727Z,121
2024-01-11T23:10:39.721Z,114
2024-01-11T23:13:39.694Z,120
2024-01-11T23:15:39.785Z,124
2024-01-11T23:18:39.998Z,122
2024-01-11T23:21:39.712Z,120
2024-01-11T23:23:39.713Z,116
2024-01-11T23:26:39.775Z,119
2024-01-11T23:29:39.729Z,126
2024-01-11T23:31:39.704Z,124
2024-01-11T23:33:39.795Z,125
2024-01-11T23:36:39.714Z,118
2024-01-11T23:38:39.755Z,119
2024-01-11T23:41:39.722Z,119
2024-01-11T23:43:39.776Z,122
2024-01-11T23:46:39.756Z,126
2024-01-11T23:49:39.790Z,113
2024-01-11T23:51:39.813Z,113
2024-01-11T23:53:39.701Z,117
2024-01-11T23:56:39.744Z,99
2024-01-11T23:58:39.728Z,92
